sensor_id;sensor_type;location;lat;lon;timestamp;P1;durP1;ratioP1;P2;durP2;ratioP2
42018;SDS011;27703;51.980;5.848;2023-05-19T00:01:26;2.83;;;0.70;;
42018;SDS011;27703;51.980;5.848;2023-05-19T00:03:54;2.13;;;0.80;;
42018;SDS011;27703;51.980;5.848;2023-05-19T00:06:29;4.05;;;0.95;;
42018;SDS011;27703;51.980;5.848;2023-05-19T00:09:00;5.07;;;0.77;;
42018;SDS011;27703;51.980;5.848;2023-05-19T00:11:27;1.65;;;0.52;;
42018;SDS011;27703;51.980;5.848;2023-05-19T00:13:53;2.95;;;0.50;;
42018;SDS011;27703;51.980;5.848;2023-05-19T00:16:21;2.53;;;0.70;;
42018;SDS011;27703;51.980;5.848;2023-05-19T00:18:47;5.20;;;0.80;;
42018;SDS011;27703;51.980;5.848;2023-05-19T00:21:13;4.05;;;0.52;;
42018;SDS011;27703;51.980;5.848;2023-05-19T00:23:39;3.05;;;0.80;;
42018;SDS011;27703;51.980;5.848;2023-05-19T00:26:05;2.47;;;0.50;;
42018;SDS011;27703;51.980;5.848;2023-05-19T00:28:30;2.80;;;0.55;;
42018;SDS011;27703;51.980;5.848;2023-05-19T00:30:56;4.22;;;0.70;;
42018;SDS011;27703;51.980;5.848;2023-05-19T00:33:21;2.75;;;0.70;;
42018;SDS011;27703;51.980;5.848;2023-05-19T00:35:47;1.50;;;0.60;;
42018;SDS011;27703;51.980;5.848;2023-05-19T00:38:12;3.00;;;0.70;;
42018;SDS011;27703;51.980;5.848;2023-05-19T00:40:38;2.75;;;0.70;;
42018;SDS011;27703;51.980;5.848;2023-05-19T00:43:04;2.80;;;0.85;;
42018;SDS011;27703;51.980;5.848;2023-05-19T00:45:29;2.83;;;0.63;;
42018;SDS011;27703;51.980;5.848;2023-05-19T00:47:55;4.13;;;0.65;;
42018;SDS011;27703;51.980;5.848;2023-05-19T00:50:21;4.53;;;0.77;;
42018;SDS011;27703;51.980;5.848;2023-05-19T00:52:48;3.35;;;0.85;;
42018;SDS011;27703;51.980;5.848;2023-05-19T00:55:14;4.30;;;0.70;;
42018;SDS011;27703;51.980;5.848;2023-05-19T00:57:40;2.35;;;0.90;;
42018;SDS011;27703;51.980;5.848;2023-05-19T01:00:08;3.90;;;0.80;;
42018;SDS011;27703;51.980;5.848;2023-05-19T01:02:35;3.38;;;0.63;;
42018;SDS011;27703;51.980;5.848;2023-05-19T01:05:03;4.53;;;0.90;;
42018;SDS011;27703;51.980;5.848;2023-05-19T01:07:30;2.67;;;0.65;;
42018;SDS011;27703;51.980;5.848;2023-05-19T01:09:56;3.22;;;0.60;;
42018;SDS011;27703;51.980;5.848;2023-05-19T01:12:22;5.28;;;0.80;;
42018;SDS011;27703;51.980;5.848;2023-05-19T01:14:48;3.67;;;0.70;;
42018;SDS011;27703;51.980;5.848;2023-05-19T01:19:56;3.10;;;0.60;;
42018;SDS011;27703;51.980;5.848;2023-05-19T01:22:35;3.65;;;0.50;;
42018;SDS011;27703;51.980;5.848;2023-05-19T01:27:55;2.03;;;0.70;;
42018;SDS011;27703;51.980;5.848;2023-05-19T01:30:40;4.53;;;0.70;;
42018;SDS011;27703;51.980;5.848;2023-05-19T01:33:12;3.38;;;0.70;;
42018;SDS011;27703;51.980;5.848;2023-05-19T01:35:39;2.78;;;0.80;;
42018;SDS011;27703;51.980;5.848;2023-05-19T01:38:07;1.85;;;0.65;;
42018;SDS011;27703;51.980;5.848;2023-05-19T01:40:34;3.78;;;0.80;;
42018;SDS011;27703;51.980;5.848;2023-05-19T01:43:02;3.28;;;0.95;;
42018;SDS011;27703;51.980;5.848;2023-05-19T01:45:29;4.15;;;1.30;;
42018;SDS011;27703;51.980;5.848;2023-05-19T01:47:58;2.97;;;0.73;;
42018;SDS011;27703;51.980;5.848;2023-05-19T01:50:25;4.38;;;0.70;;
42018;SDS011;27703;51.980;5.848;2023-05-19T01:52:51;3.10;;;0.95;;
42018;SDS011;27703;51.980;5.848;2023-05-19T01:55:16;2.08;;;0.70;;
42018;SDS011;27703;51.980;5.848;2023-05-19T02:00:37;7.05;;;0.88;;
42018;SDS011;27703;51.980;5.848;2023-05-19T02:03:14;2.67;;;0.93;;
42018;SDS011;27703;51.980;5.848;2023-05-19T02:06:07;2.75;;;0.70;;
42018;SDS011;27703;51.980;5.848;2023-05-19T02:11:34;8.95;;;0.88;;
42018;SDS011;27703;51.980;5.848;2023-05-19T02:14:02;2.67;;;0.70;;
42018;SDS011;27703;51.980;5.848;2023-05-19T02:16:46;6.25;;;0.88;;
42018;SDS011;27703;51.980;5.848;2023-05-19T02:19:19;1.73;;;0.98;;
42018;SDS011;27703;51.980;5.848;2023-05-19T02:21:58;3.13;;;0.80;;
42018;SDS011;27703;51.980;5.848;2023-05-19T02:24:23;1.42;;;0.60;;
42018;SDS011;27703;51.980;5.848;2023-05-19T02:26:50;3.38;;;0.55;;
42018;SDS011;27703;51.980;5.848;2023-05-19T02:29:16;3.75;;;0.80;;
42018;SDS011;27703;51.980;5.848;2023-05-19T02:31:42;2.97;;;0.90;;
42018;SDS011;27703;51.980;5.848;2023-05-19T02:34:08;3.15;;;1.10;;
42018;SDS011;27703;51.980;5.848;2023-05-19T02:36:33;2.65;;;0.70;;
42018;SDS011;27703;51.980;5.848;2023-05-19T02:39:00;5.07;;;0.95;;
42018;SDS011;27703;51.980;5.848;2023-05-19T02:41:27;3.90;;;1.00;;
42018;SDS011;27703;51.980;5.848;2023-05-19T02:43:52;1.67;;;0.52;;
42018;SDS011;27703;51.980;5.848;2023-05-19T02:46:18;3.35;;;0.80;;
42018;SDS011;27703;51.980;5.848;2023-05-19T02:48:44;3.90;;;1.10;;
42018;SDS011;27703;51.980;5.848;2023-05-19T02:51:09;2.15;;;1.05;;
42018;SDS011;27703;51.980;5.848;2023-05-19T02:53:35;4.60;;;1.08;;
42018;SDS011;27703;51.980;5.848;2023-05-19T02:56:01;3.25;;;0.82;;
42018;SDS011;27703;51.980;5.848;2023-05-19T02:58:26;2.95;;;1.00;;
42018;SDS011;27703;51.980;5.848;2023-05-19T03:00:52;3.05;;;0.90;;
42018;SDS011;27703;51.980;5.848;2023-05-19T03:03:17;4.45;;;0.70;;
42018;SDS011;27703;51.980;5.848;2023-05-19T03:05:43;2.70;;;0.70;;
42018;SDS011;27703;51.980;5.848;2023-05-19T03:08:09;3.83;;;1.20;;
42018;SDS011;27703;51.980;5.848;2023-05-19T03:10:35;5.13;;;1.65;;
42018;SDS011;27703;51.980;5.848;2023-05-19T03:13:00;3.25;;;1.20;;
42018;SDS011;27703;51.980;5.848;2023-05-19T03:15:26;5.18;;;0.82;;
42018;SDS011;27703;51.980;5.848;2023-05-19T03:17:51;3.25;;;1.27;;
42018;SDS011;27703;51.980;5.848;2023-05-19T03:20:17;3.70;;;1.80;;
42018;SDS011;27703;51.980;5.848;2023-05-19T03:22:43;4.63;;;1.35;;
42018;SDS011;27703;51.980;5.848;2023-05-19T03:25:09;4.38;;;1.67;;
42018;SDS011;27703;51.980;5.848;2023-05-19T03:27:34;3.17;;;1.55;;
42018;SDS011;27703;51.980;5.848;2023-05-19T03:30:00;2.67;;;0.82;;
42018;SDS011;27703;51.980;5.848;2023-05-19T03:32:25;5.28;;;1.08;;
42018;SDS011;27703;51.980;5.848;2023-05-19T03:34:51;4.53;;;0.80;;
42018;SDS011;27703;51.980;5.848;2023-05-19T03:37:16;4.28;;;1.40;;
42018;SDS011;27703;51.980;5.848;2023-05-19T03:39:42;4.50;;;1.23;;
42018;SDS011;27703;51.980;5.848;2023-05-19T03:42:07;10.55;;;1.35;;
42018;SDS011;27703;51.980;5.848;2023-05-19T03:44:33;6.53;;;1.38;;
42018;SDS011;27703;51.980;5.848;2023-05-19T03:46:59;3.70;;;0.90;;
42018;SDS011;27703;51.980;5.848;2023-05-19T03:49:24;5.28;;;1.88;;
42018;SDS011;27703;51.980;5.848;2023-05-19T03:51:50;4.03;;;0.80;;
42018;SDS011;27703;51.980;5.848;2023-05-19T03:54:15;2.88;;;1.25;;
42018;SDS011;27703;51.980;5.848;2023-05-19T03:56:41;3.13;;;0.90;;
42018;SDS011;27703;51.980;5.848;2023-05-19T03:59:07;4.15;;;0.80;;
42018;SDS011;27703;51.980;5.848;2023-05-19T04:01:34;3.85;;;0.90;;
42018;SDS011;27703;51.980;5.848;2023-05-19T04:04:00;4.68;;;1.23;;
42018;SDS011;27703;51.980;5.848;2023-05-19T04:06:26;3.08;;;1.45;;
42018;SDS011;27703;51.980;5.848;2023-05-19T04:08:52;4.95;;;1.00;;
42018;SDS011;27703;51.980;5.848;2023-05-19T04:11:17;4.72;;;1.60;;
42018;SDS011;27703;51.980;5.848;2023-05-19T04:13:46;4.78;;;1.58;;
42018;SDS011;27703;51.980;5.848;2023-05-19T04:16:11;4.00;;;1.13;;
42018;SDS011;27703;51.980;5.848;2023-05-19T04:18:37;3.05;;;0.90;;
42018;SDS011;27703;51.980;5.848;2023-05-19T04:21:03;3.88;;;1.55;;
42018;SDS011;27703;51.980;5.848;2023-05-19T04:23:29;4.00;;;1.40;;
42018;SDS011;27703;51.980;5.848;2023-05-19T04:25:54;6.00;;;1.45;;
42018;SDS011;27703;51.980;5.848;2023-05-19T04:28:22;4.20;;;1.02;;
42018;SDS011;27703;51.980;5.848;2023-05-19T04:30:47;3.95;;;1.33;;
42018;SDS011;27703;51.980;5.848;2023-05-19T04:33:14;5.20;;;1.52;;
42018;SDS011;27703;51.980;5.848;2023-05-19T04:35:40;4.90;;;1.13;;
42018;SDS011;27703;51.980;5.848;2023-05-19T04:38:07;2.90;;;1.30;;
42018;SDS011;27703;51.980;5.848;2023-05-19T04:40:33;2.13;;;1.27;;
42018;SDS011;27703;51.980;5.848;2023-05-19T04:42:59;1.75;;;0.90;;
42018;SDS011;27703;51.980;5.848;2023-05-19T04:45:25;4.28;;;1.60;;
42018;SDS011;27703;51.980;5.848;2023-05-19T04:47:51;4.07;;;0.98;;
42018;SDS011;27703;51.980;5.848;2023-05-19T04:50:21;4.65;;;1.00;;
42018;SDS011;27703;51.980;5.848;2023-05-19T04:52:47;4.25;;;1.25;;
42018;SDS011;27703;51.980;5.848;2023-05-19T04:55:13;4.07;;;1.00;;
42018;SDS011;27703;51.980;5.848;2023-05-19T04:57:38;5.32;;;1.98;;
42018;SDS011;27703;51.980;5.848;2023-05-19T05:00:04;3.75;;;0.98;;
42018;SDS011;27703;51.980;5.848;2023-05-19T05:02:32;3.67;;;2.40;;
42018;SDS011;27703;51.980;5.848;2023-05-19T05:04:58;4.93;;;1.88;;
42018;SDS011;27703;51.980;5.848;2023-05-19T05:07:24;5.00;;;1.67;;
42018;SDS011;27703;51.980;5.848;2023-05-19T05:09:49;3.88;;;0.98;;
42018;SDS011;27703;51.980;5.848;2023-05-19T05:12:16;4.70;;;0.90;;
42018;SDS011;27703;51.980;5.848;2023-05-19T05:14:42;4.20;;;1.73;;
42018;SDS011;27703;51.980;5.848;2023-05-19T05:17:09;2.83;;;1.10;;
42018;SDS011;27703;51.980;5.848;2023-05-19T05:19:36;3.28;;;0.88;;
42018;SDS011;27703;51.980;5.848;2023-05-19T05:22:02;3.47;;;0.98;;
42018;SDS011;27703;51.980;5.848;2023-05-19T05:24:28;11.20;;;1.55;;
42018;SDS011;27703;51.980;5.848;2023-05-19T05:26:54;4.13;;;1.20;;
42018;SDS011;27703;51.980;5.848;2023-05-19T05:29:19;3.38;;;0.90;;
42018;SDS011;27703;51.980;5.848;2023-05-19T05:31:45;4.30;;;1.02;;
42018;SDS011;27703;51.980;5.848;2023-05-19T05:34:10;2.75;;;0.82;;
42018;SDS011;27703;51.980;5.848;2023-05-19T05:36:36;2.90;;;1.10;;
42018;SDS011;27703;51.980;5.848;2023-05-19T05:39:02;2.28;;;0.80;;
42018;SDS011;27703;51.980;5.848;2023-05-19T05:41:28;2.15;;;0.90;;
42018;SDS011;27703;51.980;5.848;2023-05-19T05:43:59;4.38;;;1.15;;
42018;SDS011;27703;51.980;5.848;2023-05-19T05:46:25;4.32;;;0.80;;
42018;SDS011;27703;51.980;5.848;2023-05-19T05:48:51;4.75;;;1.17;;
42018;SDS011;27703;51.980;5.848;2023-05-19T05:51:16;4.43;;;0.98;;
42018;SDS011;27703;51.980;5.848;2023-05-19T05:53:45;4.78;;;0.93;;
42018;SDS011;27703;51.980;5.848;2023-05-19T05:56:17;4.05;;;0.70;;
42018;SDS011;27703;51.980;5.848;2023-05-19T05:58:43;2.55;;;0.82;;
42018;SDS011;27703;51.980;5.848;2023-05-19T06:01:09;5.28;;;0.82;;
42018;SDS011;27703;51.980;5.848;2023-05-19T06:03:39;3.10;;;0.75;;
42018;SDS011;27703;51.980;5.848;2023-05-19T06:06:05;3.50;;;0.95;;
42018;SDS011;27703;51.980;5.848;2023-05-19T06:08:31;4.68;;;0.73;;
42018;SDS011;27703;51.980;5.848;2023-05-19T06:10:56;3.85;;;0.60;;
42018;SDS011;27703;51.980;5.848;2023-05-19T06:13:22;3.30;;;0.85;;
42018;SDS011;27703;51.980;5.848;2023-05-19T06:15:49;2.90;;;0.63;;
42018;SDS011;27703;51.980;5.848;2023-05-19T06:18:16;1.60;;;0.60;;
42018;SDS011;27703;51.980;5.848;2023-05-19T06:20:42;2.13;;;0.52;;
42018;SDS011;27703;51.980;5.848;2023-05-19T06:23:07;2.20;;;0.57;;
42018;SDS011;27703;51.980;5.848;2023-05-19T06:25:33;3.30;;;0.60;;
42018;SDS011;27703;51.980;5.848;2023-05-19T06:27:59;2.53;;;0.60;;
42018;SDS011;27703;51.980;5.848;2023-05-19T06:30:24;3.33;;;0.70;;
42018;SDS011;27703;51.980;5.848;2023-05-19T06:32:50;2.08;;;0.40;;
42018;SDS011;27703;51.980;5.848;2023-05-19T06:35:15;2.55;;;0.50;;
42018;SDS011;27703;51.980;5.848;2023-05-19T06:37:41;2.38;;;0.60;;
42018;SDS011;27703;51.980;5.848;2023-05-19T06:40:07;2.45;;;0.50;;
42018;SDS011;27703;51.980;5.848;2023-05-19T06:42:33;4.43;;;0.80;;
42018;SDS011;27703;51.980;5.848;2023-05-19T06:44:58;1.77;;;0.30;;
42018;SDS011;27703;51.980;5.848;2023-05-19T06:47:24;2.28;;;0.85;;
42018;SDS011;27703;51.980;5.848;2023-05-19T06:49:50;3.40;;;0.50;;
42018;SDS011;27703;51.980;5.848;2023-05-19T06:52:19;4.28;;;0.60;;
42018;SDS011;27703;51.980;5.848;2023-05-19T06:54:45;3.92;;;0.50;;
42018;SDS011;27703;51.980;5.848;2023-05-19T06:57:11;3.65;;;0.30;;
42018;SDS011;27703;51.980;5.848;2023-05-19T06:59:36;2.10;;;0.22;;
42018;SDS011;27703;51.980;5.848;2023-05-19T07:02:04;1.77;;;0.30;;
42018;SDS011;27703;51.980;5.848;2023-05-19T07:04:31;2.08;;;0.30;;
42018;SDS011;27703;51.980;5.848;2023-05-19T07:06:56;2.55;;;0.40;;
42018;SDS011;27703;51.980;5.848;2023-05-19T07:09:22;4.07;;;0.40;;
42018;SDS011;27703;51.980;5.848;2023-05-19T07:11:48;3.55;;;0.40;;
42018;SDS011;27703;51.980;5.848;2023-05-19T07:14:13;1.80;;;0.45;;
42018;SDS011;27703;51.980;5.848;2023-05-19T07:16:39;4.30;;;0.60;;
42018;SDS011;27703;51.980;5.848;2023-05-19T07:19:05;3.58;;;0.63;;
42018;SDS011;27703;51.980;5.848;2023-05-19T07:21:30;3.72;;;0.50;;
42018;SDS011;27703;51.980;5.848;2023-05-19T07:23:56;3.80;;;0.50;;
42018;SDS011;27703;51.980;5.848;2023-05-19T07:26:21;1.25;;;0.32;;
42018;SDS011;27703;51.980;5.848;2023-05-19T07:28:47;2.80;;;0.30;;
42018;SDS011;27703;51.980;5.848;2023-05-19T07:31:13;5.57;;;0.30;;
42018;SDS011;27703;51.980;5.848;2023-05-19T07:33:39;2.95;;;0.63;;
42018;SDS011;27703;51.980;5.848;2023-05-19T07:36:05;3.75;;;0.45;;
42018;SDS011;27703;51.980;5.848;2023-05-19T07:38:30;2.55;;;0.30;;
42018;SDS011;27703;51.980;5.848;2023-05-19T07:40:59;2.15;;;0.50;;
42018;SDS011;27703;51.980;5.848;2023-05-19T07:43:25;1.63;;;0.40;;
42018;SDS011;27703;51.980;5.848;2023-05-19T07:45:50;3.03;;;0.45;;
42018;SDS011;27703;51.980;5.848;2023-05-19T07:48:17;3.17;;;0.30;;
42018;SDS011;27703;51.980;5.848;2023-05-19T07:50:46;1.52;;;0.20;;
42018;SDS011;27703;51.980;5.848;2023-05-19T07:53:12;2.33;;;0.40;;
42018;SDS011;27703;51.980;5.848;2023-05-19T07:55:38;1.42;;;0.30;;
42018;SDS011;27703;51.980;5.848;2023-05-19T07:58:03;2.42;;;0.30;;
42018;SDS011;27703;51.980;5.848;2023-05-19T08:00:29;1.42;;;0.20;;
42018;SDS011;27703;51.980;5.848;2023-05-19T08:02:54;0.85;;;0.20;;
42018;SDS011;27703;51.980;5.848;2023-05-19T08:05:21;2.22;;;0.30;;
42018;SDS011;27703;51.980;5.848;2023-05-19T08:07:47;2.65;;;0.50;;
42018;SDS011;27703;51.980;5.848;2023-05-19T08:10:12;1.65;;;0.20;;
42018;SDS011;27703;51.980;5.848;2023-05-19T08:12:38;4.82;;;1.10;;
42018;SDS011;27703;51.980;5.848;2023-05-19T08:15:04;3.95;;;0.40;;
42018;SDS011;27703;51.980;5.848;2023-05-19T08:17:31;1.65;;;0.30;;
42018;SDS011;27703;51.980;5.848;2023-05-19T08:19:56;2.15;;;0.30;;
42018;SDS011;27703;51.980;5.848;2023-05-19T08:22:22;4.32;;;0.32;;
42018;SDS011;27703;51.980;5.848;2023-05-19T08:24:48;1.52;;;0.20;;
42018;SDS011;27703;51.980;5.848;2023-05-19T08:27:16;2.63;;;0.20;;
42018;SDS011;27703;51.980;5.848;2023-05-19T08:29:42;2.90;;;0.30;;
42018;SDS011;27703;51.980;5.848;2023-05-19T08:32:07;4.03;;;0.50;;
42018;SDS011;27703;51.980;5.848;2023-05-19T08:34:33;1.27;;;0.20;;
42018;SDS011;27703;51.980;5.848;2023-05-19T08:36:58;3.95;;;0.30;;
42018;SDS011;27703;51.980;5.848;2023-05-19T08:39:24;2.00;;;0.28;;
42018;SDS011;27703;51.980;5.848;2023-05-19T08:41:51;2.30;;;0.28;;
42018;SDS011;27703;51.980;5.848;2023-05-19T08:44:18;4.22;;;0.52;;
42018;SDS011;27703;51.980;5.848;2023-05-19T08:46:44;1.63;;;0.35;;
42018;SDS011;27703;51.980;5.848;2023-05-19T08:49:12;2.30;;;0.30;;
42018;SDS011;27703;51.980;5.848;2023-05-19T08:54:24;2.67;;;0.30;;
42018;SDS011;27703;51.980;5.848;2023-05-19T08:56:57;3.00;;;0.40;;
42018;SDS011;27703;51.980;5.848;2023-05-19T08:59:24;2.13;;;0.28;;
42018;SDS011;27703;51.980;5.848;2023-05-19T09:01:50;1.23;;;0.28;;
42018;SDS011;27703;51.980;5.848;2023-05-19T09:04:17;1.80;;;0.30;;
42018;SDS011;27703;51.980;5.848;2023-05-19T09:06:43;4.78;;;0.32;;
42018;SDS011;27703;51.980;5.848;2023-05-19T09:09:09;1.63;;;0.20;;
42018;SDS011;27703;51.980;5.848;2023-05-19T09:11:35;1.77;;;0.20;;
42018;SDS011;27703;51.980;5.848;2023-05-19T09:14:01;2.72;;;0.40;;
42018;SDS011;27703;51.980;5.848;2023-05-19T09:16:30;2.63;;;0.28;;
42018;SDS011;27703;51.980;5.848;2023-05-19T09:18:57;3.22;;;0.38;;
42018;SDS011;27703;51.980;5.848;2023-05-19T09:21:28;2.15;;;0.20;;
42018;SDS011;27703;51.980;5.848;2023-05-19T09:23:58;2.08;;;0.28;;
42018;SDS011;27703;51.980;5.848;2023-05-19T09:26:38;3.35;;;0.30;;
42018;SDS011;27703;51.980;5.848;2023-05-19T09:29:15;2.40;;;0.20;;
42018;SDS011;27703;51.980;5.848;2023-05-19T09:31:51;2.45;;;0.20;;
42018;SDS011;27703;51.980;5.848;2023-05-19T09:34:18;3.55;;;0.40;;
42018;SDS011;27703;51.980;5.848;2023-05-19T09:36:45;2.45;;;0.45;;
42018;SDS011;27703;51.980;5.848;2023-05-19T09:39:13;1.98;;;0.20;;
42018;SDS011;27703;51.980;5.848;2023-05-19T09:41:40;4.75;;;0.43;;
42018;SDS011;27703;51.980;5.848;2023-05-19T09:44:06;2.88;;;0.30;;
42018;SDS011;27703;51.980;5.848;2023-05-19T09:46:32;1.13;;;0.20;;
42018;SDS011;27703;51.980;5.848;2023-05-19T09:49:02;2.25;;;0.30;;
42018;SDS011;27703;51.980;5.848;2023-05-19T09:51:36;2.65;;;0.20;;
42018;SDS011;27703;51.980;5.848;2023-05-19T09:54:02;1.83;;;0.20;;
42018;SDS011;27703;51.980;5.848;2023-05-19T09:56:37;0.90;;;0.20;;
42018;SDS011;27703;51.980;5.848;2023-05-19T09:59:03;3.15;;;0.30;;
42018;SDS011;27703;51.980;5.848;2023-05-19T10:01:31;1.35;;;0.20;;
42018;SDS011;27703;51.980;5.848;2023-05-19T10:04:04;4.03;;;0.60;;
42018;SDS011;27703;51.980;5.848;2023-05-19T10:06:30;1.65;;;0.10;;
42018;SDS011;27703;51.980;5.848;2023-05-19T10:08:56;2.13;;;0.20;;
42018;SDS011;27703;51.980;5.848;2023-05-19T10:11:23;3.03;;;0.30;;
42018;SDS011;27703;51.980;5.848;2023-05-19T10:13:49;3.72;;;0.30;;
42018;SDS011;27703;51.980;5.848;2023-05-19T10:16:15;3.25;;;0.40;;
42018;SDS011;27703;51.980;5.848;2023-05-19T10:18:42;1.88;;;0.20;;
42018;SDS011;27703;51.980;5.848;2023-05-19T10:21:08;3.25;;;0.30;;
42018;SDS011;27703;51.980;5.848;2023-05-19T10:23:35;2.63;;;0.50;;
42018;SDS011;27703;51.980;5.848;2023-05-19T10:26:01;1.67;;;0.30;;
42018;SDS011;27703;51.980;5.848;2023-05-19T10:28:32;2.67;;;0.20;;
42018;SDS011;27703;51.980;5.848;2023-05-19T10:31:00;3.50;;;0.30;;
42018;SDS011;27703;51.980;5.848;2023-05-19T10:34:12;3.08;;;0.52;;
42018;SDS011;27703;51.980;5.848;2023-05-19T10:36:43;2.63;;;0.40;;
42018;SDS011;27703;51.980;5.848;2023-05-19T10:39:21;1.45;;;0.30;;
42018;SDS011;27703;51.980;5.848;2023-05-19T10:47:09;3.65;;;0.40;;
42018;SDS011;27703;51.980;5.848;2023-05-19T10:49:36;3.35;;;0.57;;
42018;SDS011;27703;51.980;5.848;2023-05-19T10:52:02;2.47;;;0.40;;
42018;SDS011;27703;51.980;5.848;2023-05-19T10:54:40;2.72;;;0.40;;
42018;SDS011;27703;51.980;5.848;2023-05-19T10:57:13;1.42;;;0.20;;
42018;SDS011;27703;51.980;5.848;2023-05-19T10:59:40;1.90;;;0.20;;
42018;SDS011;27703;51.980;5.848;2023-05-19T11:02:06;5.45;;;0.40;;
42018;SDS011;27703;51.980;5.848;2023-05-19T11:07:15;2.63;;;0.10;;
42018;SDS011;27703;51.980;5.848;2023-05-19T11:12:08;1.73;;;0.30;;
42018;SDS011;27703;51.980;5.848;2023-05-19T11:14:34;1.40;;;0.22;;
42018;SDS011;27703;51.980;5.848;2023-05-19T11:17:00;4.82;;;0.40;;
42018;SDS011;27703;51.980;5.848;2023-05-19T11:21:52;0.85;;;0.20;;
42018;SDS011;27703;51.980;5.848;2023-05-19T11:27:15;1.90;;;0.30;;
42018;SDS011;27703;51.980;5.848;2023-05-19T11:29:41;2.90;;;0.20;;
42018;SDS011;27703;51.980;5.848;2023-05-19T11:32:07;1.70;;;0.20;;
42018;SDS011;27703;51.980;5.848;2023-05-19T11:34:33;2.17;;;0.25;;
42018;SDS011;27703;51.980;5.848;2023-05-19T11:37:01;2.30;;;0.38;;
42018;SDS011;27703;51.980;5.848;2023-05-19T11:39:26;3.00;;;0.40;;
42018;SDS011;27703;51.980;5.848;2023-05-19T11:41:56;2.10;;;0.50;;
42018;SDS011;27703;51.980;5.848;2023-05-19T11:44:21;1.67;;;0.50;;
42018;SDS011;27703;51.980;5.848;2023-05-19T11:46:47;3.08;;;0.35;;
42018;SDS011;27703;51.980;5.848;2023-05-19T11:49:13;4.10;;;0.30;;
42018;SDS011;27703;51.980;5.848;2023-05-19T11:51:41;2.00;;;0.20;;
42018;SDS011;27703;51.980;5.848;2023-05-19T11:54:08;2.88;;;0.30;;
42018;SDS011;27703;51.980;5.848;2023-05-19T11:56:38;1.92;;;0.20;;
42018;SDS011;27703;51.980;5.848;2023-05-19T11:59:05;3.00;;;0.40;;
42018;SDS011;27703;51.980;5.848;2023-05-19T12:01:32;3.30;;;0.30;;
42018;SDS011;27703;51.980;5.848;2023-05-19T12:03:59;2.75;;;0.20;;
42018;SDS011;27703;51.980;5.848;2023-05-19T12:06:25;1.65;;;0.30;;
42018;SDS011;27703;51.980;5.848;2023-05-19T12:08:52;0.73;;;0.20;;
42018;SDS011;27703;51.980;5.848;2023-05-19T12:11:19;2.85;;;0.47;;
42018;SDS011;27703;51.980;5.848;2023-05-19T12:13:45;1.27;;;0.20;;
42018;SDS011;27703;51.980;5.848;2023-05-19T12:16:11;2.13;;;0.40;;
42018;SDS011;27703;51.980;5.848;2023-05-19T12:18:37;0.77;;;0.20;;
42018;SDS011;27703;51.980;5.848;2023-05-19T12:21:03;2.08;;;0.30;;
42018;SDS011;27703;51.980;5.848;2023-05-19T12:23:29;1.83;;;0.28;;
42018;SDS011;27703;51.980;5.848;2023-05-19T12:25:56;2.17;;;0.20;;
42018;SDS011;27703;51.980;5.848;2023-05-19T12:28:23;2.30;;;0.30;;
42018;SDS011;27703;51.980;5.848;2023-05-19T12:30:49;1.55;;;0.20;;
42018;SDS011;27703;51.980;5.848;2023-05-19T12:33:17;2.33;;;0.30;;
42018;SDS011;27703;51.980;5.848;2023-05-19T12:35:45;2.15;;;0.20;;
42018;SDS011;27703;51.980;5.848;2023-05-19T12:38:12;1.40;;;0.28;;
42018;SDS011;27703;51.980;5.848;2023-05-19T12:40:38;1.13;;;0.25;;
42018;SDS011;27703;51.980;5.848;2023-05-19T12:43:04;3.22;;;0.30;;
42018;SDS011;27703;51.980;5.848;2023-05-19T12:45:33;2.10;;;0.38;;
42018;SDS011;27703;51.980;5.848;2023-05-19T12:48:01;1.38;;;0.20;;
42018;SDS011;27703;51.980;5.848;2023-05-19T12:50:29;2.15;;;0.30;;
42018;SDS011;27703;51.980;5.848;2023-05-19T12:52:55;1.10;;;0.43;;
42018;SDS011;27703;51.980;5.848;2023-05-19T12:55:23;1.90;;;0.20;;
42018;SDS011;27703;51.980;5.848;2023-05-19T12:57:49;2.65;;;0.30;;
42018;SDS011;27703;51.980;5.848;2023-05-19T13:00:21;0.85;;;0.20;;
42018;SDS011;27703;51.980;5.848;2023-05-19T13:03:05;2.92;;;0.50;;
42018;SDS011;27703;51.980;5.848;2023-05-19T13:08:00;2.67;;;0.20;;
42018;SDS011;27703;51.980;5.848;2023-05-19T13:10:29;3.53;;;0.30;;
42018;SDS011;27703;51.980;5.848;2023-05-19T13:12:55;1.02;;;0.20;;
42018;SDS011;27703;51.980;5.848;2023-05-19T13:15:23;1.02;;;0.13;;
42018;SDS011;27703;51.980;5.848;2023-05-19T13:17:50;1.00;;;0.30;;
42018;SDS011;27703;51.980;5.848;2023-05-19T13:20:16;2.42;;;0.30;;
42018;SDS011;27703;51.980;5.848;2023-05-19T13:22:42;0.73;;;0.15;;
42018;SDS011;27703;51.980;5.848;2023-05-19T13:25:07;1.27;;;0.30;;
42018;SDS011;27703;51.980;5.848;2023-05-19T13:27:33;1.35;;;0.30;;
42018;SDS011;27703;51.980;5.848;2023-05-19T13:29:59;1.27;;;0.20;;
42018;SDS011;27703;51.980;5.848;2023-05-19T13:32:25;3.60;;;0.28;;
42018;SDS011;27703;51.980;5.848;2023-05-19T13:34:51;1.55;;;0.30;;
42018;SDS011;27703;51.980;5.848;2023-05-19T13:37:16;1.73;;;0.20;;
42018;SDS011;27703;51.980;5.848;2023-05-19T13:39:42;2.53;;;0.30;;
42018;SDS011;27703;51.980;5.848;2023-05-19T13:42:07;1.75;;;0.30;;
42018;SDS011;27703;51.980;5.848;2023-05-19T13:44:33;2.58;;;0.30;;
42018;SDS011;27703;51.980;5.848;2023-05-19T13:46:58;2.10;;;0.40;;
42018;SDS011;27703;51.980;5.848;2023-05-19T13:49:24;2.53;;;0.30;;
42018;SDS011;27703;51.980;5.848;2023-05-19T13:51:50;2.38;;;0.30;;
42018;SDS011;27703;51.980;5.848;2023-05-19T13:54:16;1.77;;;0.30;;
42018;SDS011;27703;51.980;5.848;2023-05-19T13:56:41;1.77;;;0.32;;
42018;SDS011;27703;51.980;5.848;2023-05-19T13:59:09;2.67;;;0.30;;
42018;SDS011;27703;51.980;5.848;2023-05-19T14:01:35;1.13;;;0.20;;
42018;SDS011;27703;51.980;5.848;2023-05-19T14:04:01;1.40;;;0.20;;
42018;SDS011;27703;51.980;5.848;2023-05-19T14:06:26;2.03;;;0.20;;
42018;SDS011;27703;51.980;5.848;2023-05-19T14:08:52;0.60;;;0.20;;
42018;SDS011;27703;51.980;5.848;2023-05-19T14:11:18;1.45;;;0.30;;
42018;SDS011;27703;51.980;5.848;2023-05-19T14:13:46;1.48;;;0.20;;
42018;SDS011;27703;51.980;5.848;2023-05-19T14:16:14;2.25;;;0.30;;
42018;SDS011;27703;51.980;5.848;2023-05-19T14:18:39;1.50;;;0.25;;
42018;SDS011;27703;51.980;5.848;2023-05-19T14:21:05;4.97;;;0.32;;
42018;SDS011;27703;51.980;5.848;2023-05-19T14:23:31;3.33;;;0.25;;
42018;SDS011;27703;51.980;5.848;2023-05-19T14:25:56;2.55;;;0.30;;
42018;SDS011;27703;51.980;5.848;2023-05-19T14:28:22;1.45;;;0.20;;
42018;SDS011;27703;51.980;5.848;2023-05-19T14:30:47;1.73;;;0.20;;
42018;SDS011;27703;51.980;5.848;2023-05-19T14:33:13;1.38;;;0.28;;
42018;SDS011;27703;51.980;5.848;2023-05-19T14:35:39;2.33;;;0.47;;
42018;SDS011;27703;51.980;5.848;2023-05-19T14:38:05;1.75;;;0.28;;
42018;SDS011;27703;51.980;5.848;2023-05-19T14:40:30;1.60;;;0.35;;
42018;SDS011;27703;51.980;5.848;2023-05-19T14:42:56;1.98;;;0.20;;
42018;SDS011;27703;51.980;5.848;2023-05-19T14:45:21;2.60;;;0.20;;
42018;SDS011;27703;51.980;5.848;2023-05-19T14:47:47;3.25;;;0.30;;
42018;SDS011;27703;51.980;5.848;2023-05-19T14:50:13;0.80;;;0.10;;
42018;SDS011;27703;51.980;5.848;2023-05-19T14:52:38;0.70;;;0.20;;
42018;SDS011;27703;51.980;5.848;2023-05-19T14:55:04;2.97;;;0.30;;
42018;SDS011;27703;51.980;5.848;2023-05-19T14:57:30;1.15;;;0.20;;
42018;SDS011;27703;51.980;5.848;2023-05-19T14:59:55;3.33;;;0.25;;
42018;SDS011;27703;51.980;5.848;2023-05-19T15:02:21;2.42;;;0.20;;
42018;SDS011;27703;51.980;5.848;2023-05-19T15:04:46;1.48;;;0.20;;
42018;SDS011;27703;51.980;5.848;2023-05-19T15:07:12;1.15;;;0.20;;
42018;SDS011;27703;51.980;5.848;2023-05-19T15:09:37;1.02;;;0.20;;
42018;SDS011;27703;51.980;5.848;2023-05-19T15:12:03;1.65;;;0.20;;
42018;SDS011;27703;51.980;5.848;2023-05-19T15:14:29;1.35;;;0.52;;
42018;SDS011;27703;51.980;5.848;2023-05-19T15:16:54;1.38;;;0.30;;
42018;SDS011;27703;51.980;5.848;2023-05-19T15:19:20;1.77;;;0.20;;